N178LA EDDL-EDLP
Flight info
| Callsign | N178LA |
|---|---|
| Flight time | 0h 44m |
| Altitude | 5000 |
| Route | BAM DCT DOR DCT IBEGO/N0111F040 |
| Aircraft | C172/L-SFG/C |
Departure
| Time | 2026-05-06 13:15 |
|---|---|
| Airport | Düsseldorf Airport (EDDL) |
Arrival
| Time | 2026-05-06 13:59 |
|---|---|
| Airport | Paderborn Lippstadt Airport (EDLP) |
| Time | Latitude | Longitude | Altitude | Speed | Heading |
|---|---|---|---|---|---|
| 2026-05-06 12:52 | 51.28650 | 6.77374 | 130 ft | 0 kts | 322° |
| 2026-05-06 13:08 | 51.28652 | 6.77373 | 130 ft | 1 kts | 351° |
| 2026-05-06 13:08 | 51.28639 | 6.77428 | 128 ft | 11 kts | 174° |
| 2026-05-06 13:09 | 51.28593 | 6.77373 | 129 ft | 6 kts | 219° |
| 2026-05-06 13:09 | 51.28564 | 6.77368 | 129 ft | 6 kts | 177° |
| 2026-05-06 13:09 | 51.28512 | 6.77286 | 129 ft | 16 kts | 238° |
| 2026-05-06 13:09 | 51.28439 | 6.77132 | 128 ft | 15 kts | 232° |
| 2026-05-06 13:10 | 51.28387 | 6.77022 | 126 ft | 10 kts | 233° |
| 2026-05-06 13:10 | 51.28353 | 6.76940 | 126 ft | 9 kts | 254° |
| 2026-05-06 13:10 | 51.28385 | 6.76853 | 129 ft | 10 kts | 323° |
| 2026-05-06 13:10 | 51.28447 | 6.76783 | 131 ft | 12 kts | 331° |
| 2026-05-06 13:11 | 51.28526 | 6.76750 | 133 ft | 6 kts | 332° |
| 2026-05-06 13:11 | 51.28534 | 6.76741 | 133 ft | 0 kts | 322° |
| 2026-05-06 13:11 | 51.28550 | 6.76719 | 133 ft | 8 kts | 319° |
| 2026-05-06 13:12 | 51.28568 | 6.76696 | 133 ft | 0 kts | 323° |
| 2026-05-06 13:12 | 51.28607 | 6.76652 | 134 ft | 14 kts | 330° |
| 2026-05-06 13:13 | 51.28664 | 6.76675 | 134 ft | 6 kts | 60° |
| 2026-05-06 13:13 | 51.28671 | 6.76690 | 134 ft | 0 kts | 52° |
| 2026-05-06 13:14 | 51.28671 | 6.76691 | 134 ft | 2 kts | 51° |
| 2026-05-06 13:14 | 51.28778 | 6.76913 | 137 ft | 49 kts | 51° |
| 2026-05-06 13:15 | 51.29039 | 6.77501 | 207 ft | 72 kts | 50° |
| 2026-05-06 13:15 | 51.29319 | 6.78127 | 437 ft | 67 kts | 49° |
| 2026-05-06 13:15 | 51.29615 | 6.78688 | 648 ft | 66 kts | 48° |
| 2026-05-06 13:15 | 51.29836 | 6.79304 | 876 ft | 66 kts | 89° |
| 2026-05-06 13:16 | 51.29760 | 6.80039 | 1069 ft | 67 kts | 91° |
| 2026-05-06 13:16 | 51.29706 | 6.80754 | 1255 ft | 64 kts | 92° |
| 2026-05-06 13:16 | 51.29713 | 6.81459 | 1426 ft | 66 kts | 84° |
| 2026-05-06 13:16 | 51.29725 | 6.82229 | 1602 ft | 72 kts | 84° |
| 2026-05-06 13:17 | 51.29741 | 6.83030 | 1784 ft | 72 kts | 84° |
| 2026-05-06 13:17 | 51.29758 | 6.83835 | 1957 ft | 72 kts | 84° |
| 2026-05-06 13:17 | 51.29774 | 6.84637 | 2139 ft | 72 kts | 85° |
| 2026-05-06 13:17 | 51.29793 | 6.85452 | 2322 ft | 75 kts | 85° |
| 2026-05-06 13:18 | 51.29815 | 6.86292 | 2498 ft | 77 kts | 84° |
| 2026-05-06 13:18 | 51.29845 | 6.87153 | 2675 ft | 79 kts | 84° |
| 2026-05-06 13:18 | 51.29885 | 6.88046 | 2852 ft | 82 kts | 82° |
| 2026-05-06 13:18 | 51.29961 | 6.88963 | 3027 ft | 84 kts | 80° |
| 2026-05-06 13:19 | 51.30035 | 6.89903 | 3202 ft | 86 kts | 80° |
| 2026-05-06 13:19 | 51.30103 | 6.90861 | 3378 ft | 88 kts | 82° |
| 2026-05-06 13:19 | 51.30178 | 6.91841 | 3540 ft | 89 kts | 82° |
| 2026-05-06 13:19 | 51.30263 | 6.92819 | 3704 ft | 89 kts | 82° |
| 2026-05-06 13:20 | 51.30342 | 6.93801 | 3881 ft | 89 kts | 82° |
| 2026-05-06 13:20 | 51.30427 | 6.94786 | 4049 ft | 89 kts | 82° |
| 2026-05-06 13:20 | 51.30517 | 6.95754 | 4213 ft | 89 kts | 82° |
| 2026-05-06 13:20 | 51.30613 | 6.96718 | 4384 ft | 88 kts | 81° |
| 2026-05-06 13:21 | 51.30713 | 6.97670 | 4554 ft | 86 kts | 81° |
| 2026-05-06 13:21 | 51.30816 | 6.98610 | 4727 ft | 86 kts | 81° |
| 2026-05-06 13:21 | 51.30923 | 6.99573 | 4883 ft | 91 kts | 82° |
| 2026-05-06 13:21 | 51.31041 | 7.00660 | 4891 ft | 106 kts | 83° |
| 2026-05-06 13:22 | 51.31169 | 7.01867 | 4889 ft | 113 kts | 83° |
| 2026-05-06 13:22 | 51.31302 | 7.03127 | 4891 ft | 116 kts | 83° |
| 2026-05-06 13:22 | 51.31434 | 7.04417 | 4886 ft | 119 kts | 84° |
| 2026-05-06 13:22 | 51.31568 | 7.05734 | 4883 ft | 120 kts | 84° |
| 2026-05-06 13:23 | 51.31704 | 7.07060 | 4881 ft | 121 kts | 83° |
| 2026-05-06 13:23 | 51.31840 | 7.08395 | 4881 ft | 122 kts | 83° |
| 2026-05-06 13:23 | 51.31976 | 7.09744 | 4876 ft | 124 kts | 83° |
| 2026-05-06 13:23 | 51.32114 | 7.11112 | 4874 ft | 124 kts | 83° |
| 2026-05-06 13:24 | 51.32250 | 7.12471 | 4875 ft | 124 kts | 84° |
| 2026-05-06 13:24 | 51.32389 | 7.13817 | 4870 ft | 120 kts | 83° |
| 2026-05-06 13:24 | 51.32529 | 7.15115 | 4870 ft | 116 kts | 83° |
| 2026-05-06 13:24 | 51.32665 | 7.16377 | 4871 ft | 114 kts | 83° |
| 2026-05-06 13:25 | 51.32792 | 7.17625 | 4872 ft | 113 kts | 84° |
| 2026-05-06 13:25 | 51.33079 | 7.18754 | 4857 ft | 112 kts | 58° |
| 2026-05-06 13:25 | 51.33527 | 7.19771 | 4867 ft | 112 kts | 58° |
| 2026-05-06 13:25 | 51.33972 | 7.20799 | 4864 ft | 112 kts | 58° |
| 2026-05-06 13:26 | 51.34450 | 7.21799 | 4867 ft | 113 kts | 55° |
| 2026-05-06 13:26 | 51.34909 | 7.22820 | 4855 ft | 114 kts | 57° |
| 2026-05-06 13:26 | 51.35253 | 7.23602 | 4863 ft | 115 kts | 58° |
| 2026-05-06 13:26 | 51.35717 | 7.24655 | 4860 ft | 116 kts | 57° |
| 2026-05-06 13:27 | 51.36182 | 7.25711 | 4862 ft | 116 kts | 57° |
| 2026-05-06 13:27 | 51.36651 | 7.26770 | 4862 ft | 117 kts | 57° |
| 2026-05-06 13:27 | 51.37120 | 7.27843 | 4857 ft | 118 kts | 57° |
| 2026-05-06 13:27 | 51.37585 | 7.28909 | 4863 ft | 117 kts | 58° |
| 2026-05-06 13:28 | 51.37736 | 7.29253 | 4861 ft | 117 kts | 57° |
| 2026-05-06 13:28 | 51.38294 | 7.30476 | 4859 ft | 117 kts | 56° |
| 2026-05-06 13:28 | 51.38771 | 7.31515 | 4859 ft | 116 kts | 56° |
| 2026-05-06 13:28 | 51.39240 | 7.32543 | 4863 ft | 113 kts | 56° |
| 2026-05-06 13:29 | 51.39706 | 7.33556 | 4864 ft | 112 kts | 56° |
| 2026-05-06 13:29 | 51.40168 | 7.34561 | 4865 ft | 111 kts | 56° |
| 2026-05-06 13:29 | 51.40625 | 7.35561 | 4863 ft | 111 kts | 56° |
| 2026-05-06 13:29 | 51.41082 | 7.36554 | 4864 ft | 111 kts | 56° |
| 2026-05-06 13:30 | 51.41539 | 7.37549 | 4863 ft | 111 kts | 56° |
| 2026-05-06 13:30 | 51.41996 | 7.38540 | 4864 ft | 110 kts | 55° |
| 2026-05-06 13:30 | 51.42451 | 7.39530 | 4864 ft | 110 kts | 56° |
| 2026-05-06 13:30 | 51.42902 | 7.40521 | 4863 ft | 110 kts | 56° |
| 2026-05-06 13:31 | 51.43361 | 7.41514 | 4869 ft | 110 kts | 56° |
| 2026-05-06 13:31 | 51.43818 | 7.42510 | 4865 ft | 111 kts | 56° |
| 2026-05-06 13:31 | 51.44277 | 7.43505 | 4864 ft | 111 kts | 56° |
| 2026-05-06 13:31 | 51.44734 | 7.44504 | 4866 ft | 111 kts | 56° |
| 2026-05-06 13:32 | 51.45188 | 7.45505 | 4868 ft | 111 kts | 56° |
| 2026-05-06 13:32 | 51.45669 | 7.46571 | 6703 ft | 127 kts | 56° |
| 2026-05-06 13:32 | 51.46230 | 7.47756 | 6425 ft | 136 kts | 58° |
| 2026-05-06 13:32 | 51.46761 | 7.48998 | 6135 ft | 138 kts | 60° |
| 2026-05-06 13:33 | 51.47294 | 7.50276 | 5839 ft | 137 kts | 60° |
| 2026-05-06 13:33 | 51.47809 | 7.51537 | 5484 ft | 135 kts | 60° |
| 2026-05-06 13:33 | 51.48317 | 7.52799 | 5137 ft | 134 kts | 60° |
| 2026-05-06 13:33 | 51.48814 | 7.54045 | 4873 ft | 127 kts | 60° |
| 2026-05-06 13:34 | 51.49260 | 7.55152 | 4865 ft | 111 kts | 59° |
| 2026-05-06 13:34 | 51.49666 | 7.56149 | 4867 ft | 105 kts | 59° |
| 2026-05-06 13:34 | 51.50066 | 7.57117 | 4864 ft | 106 kts | 58° |
| 2026-05-06 13:34 | 51.50499 | 7.58178 | 4863 ft | 120 kts | 60° |
| 2026-05-06 13:35 | 51.50963 | 7.59329 | 4861 ft | 126 kts | 61° |
| 2026-05-06 13:35 | 51.51442 | 7.60527 | 4866 ft | 128 kts | 60° |
| 2026-05-06 13:35 | 51.51923 | 7.61738 | 4867 ft | 128 kts | 60° |
| 2026-05-06 13:35 | 51.52396 | 7.62937 | 4866 ft | 129 kts | 60° |
| 2026-05-06 13:36 | 51.52898 | 7.64161 | 4872 ft | 132 kts | 65° |
| 2026-05-06 13:36 | 51.52911 | 7.65611 | 4878 ft | 137 kts | 104° |
| 2026-05-06 13:36 | 51.52937 | 7.67153 | 4858 ft | 138 kts | 84° |
| 2026-05-06 13:36 | 51.53117 | 7.68650 | 4866 ft | 136 kts | 80° |
| 2026-05-06 13:37 | 51.53319 | 7.70144 | 4864 ft | 138 kts | 79° |
| 2026-05-06 13:37 | 51.53529 | 7.71650 | 4862 ft | 139 kts | 80° |
| 2026-05-06 13:37 | 51.53739 | 7.73157 | 4863 ft | 138 kts | 80° |
| 2026-05-06 13:37 | 51.53949 | 7.74643 | 4862 ft | 134 kts | 80° |
| 2026-05-06 13:38 | 51.54156 | 7.76085 | 4864 ft | 130 kts | 80° |
| 2026-05-06 13:38 | 51.54358 | 7.77487 | 4860 ft | 128 kts | 79° |
| 2026-05-06 13:38 | 51.54557 | 7.78853 | 4860 ft | 127 kts | 79° |
| 2026-05-06 13:38 | 51.54759 | 7.80219 | 4866 ft | 125 kts | 79° |
| 2026-05-06 13:39 | 51.54959 | 7.81567 | 4865 ft | 123 kts | 79° |
| 2026-05-06 13:39 | 51.55154 | 7.82892 | 4863 ft | 121 kts | 80° |
| 2026-05-06 13:39 | 51.55344 | 7.84211 | 4866 ft | 120 kts | 81° |
| 2026-05-06 13:39 | 51.55531 | 7.85522 | 4861 ft | 120 kts | 80° |
| 2026-05-06 13:40 | 51.55718 | 7.86830 | 4864 ft | 120 kts | 80° |
| 2026-05-06 13:40 | 51.55904 | 7.88143 | 4859 ft | 120 kts | 80° |
| 2026-05-06 13:40 | 51.56089 | 7.89452 | 4866 ft | 120 kts | 81° |
| 2026-05-06 13:40 | 51.56275 | 7.90766 | 4865 ft | 120 kts | 80° |
| 2026-05-06 13:41 | 51.56459 | 7.92056 | 4924 ft | 115 kts | 80° |
| 2026-05-06 13:41 | 51.56638 | 7.93310 | 4945 ft | 117 kts | 81° |
| 2026-05-06 13:41 | 51.56820 | 7.94601 | 4944 ft | 121 kts | 81° |
| 2026-05-06 13:41 | 51.57007 | 7.95958 | 4942 ft | 126 kts | 81° |
| 2026-05-06 13:42 | 51.57195 | 7.97331 | 4942 ft | 129 kts | 81° |
| 2026-05-06 13:42 | 51.57389 | 7.98741 | 4940 ft | 130 kts | 81° |
| 2026-05-06 13:42 | 51.57587 | 8.00165 | 4943 ft | 131 kts | 81° |
| 2026-05-06 13:42 | 51.57786 | 8.01599 | 4938 ft | 132 kts | 81° |
| 2026-05-06 13:43 | 51.57987 | 8.03036 | 4939 ft | 131 kts | 81° |
| 2026-05-06 13:43 | 51.58119 | 8.03977 | 4935 ft | 129 kts | 81° |
| 2026-05-06 13:43 | 51.58317 | 8.05376 | 4936 ft | 127 kts | 81° |
| 2026-05-06 13:43 | 51.58512 | 8.06756 | 4938 ft | 126 kts | 81° |
| 2026-05-06 13:44 | 51.58706 | 8.08137 | 4940 ft | 127 kts | 81° |
| 2026-05-06 13:44 | 51.58962 | 8.09985 | 4935 ft | 127 kts | 81° |
| 2026-05-06 13:44 | 51.59093 | 8.10922 | 4934 ft | 127 kts | 81° |
| 2026-05-06 13:44 | 51.59287 | 8.12309 | 4933 ft | 127 kts | 81° |
| 2026-05-06 13:45 | 51.59479 | 8.13691 | 4935 ft | 126 kts | 81° |
| 2026-05-06 13:45 | 51.59865 | 8.16472 | 4935 ft | 128 kts | 81° |
| 2026-05-06 13:45 | 51.60058 | 8.17872 | 4938 ft | 128 kts | 81° |
| 2026-05-06 13:46 | 51.60252 | 8.19282 | 4933 ft | 131 kts | 82° |
| 2026-05-06 13:46 | 51.60449 | 8.20711 | 4936 ft | 130 kts | 81° |
| 2026-05-06 13:46 | 51.60645 | 8.22130 | 4942 ft | 129 kts | 82° |
| 2026-05-06 13:46 | 51.60840 | 8.23536 | 4938 ft | 128 kts | 81° |
| 2026-05-06 13:47 | 51.61014 | 8.24926 | 4939 ft | 128 kts | 86° |
| 2026-05-06 13:47 | 51.61195 | 8.26341 | 4941 ft | 129 kts | 81° |
| 2026-05-06 13:47 | 51.61397 | 8.27751 | 4938 ft | 129 kts | 81° |
| 2026-05-06 13:47 | 51.61598 | 8.29167 | 4938 ft | 130 kts | 81° |
| 2026-05-06 13:48 | 51.61799 | 8.30584 | 4943 ft | 130 kts | 81° |
| 2026-05-06 13:48 | 51.61999 | 8.31999 | 4939 ft | 130 kts | 81° |
| 2026-05-06 13:48 | 51.62198 | 8.33417 | 4943 ft | 130 kts | 81° |
| 2026-05-06 13:48 | 51.62393 | 8.34834 | 4937 ft | 129 kts | 82° |
| 2026-05-06 13:49 | 51.62584 | 8.36219 | 4945 ft | 128 kts | 82° |
| 2026-05-06 13:49 | 51.62778 | 8.37630 | 4942 ft | 129 kts | 82° |
| 2026-05-06 13:49 | 51.62971 | 8.39057 | 4918 ft | 132 kts | 82° |
| 2026-05-06 13:49 | 51.63167 | 8.40529 | 4773 ft | 136 kts | 82° |
| 2026-05-06 13:50 | 51.63367 | 8.42030 | 4625 ft | 138 kts | 81° |
| 2026-05-06 13:50 | 51.63570 | 8.43546 | 4470 ft | 138 kts | 81° |
| 2026-05-06 13:50 | 51.63771 | 8.45063 | 4283 ft | 139 kts | 81° |
| 2026-05-06 13:50 | 51.63971 | 8.46576 | 4071 ft | 138 kts | 81° |
| 2026-05-06 13:51 | 51.64172 | 8.48069 | 3944 ft | 131 kts | 80° |
| 2026-05-06 13:51 | 51.64366 | 8.49449 | 3945 ft | 122 kts | 79° |
| 2026-05-06 13:51 | 51.64555 | 8.50754 | 3949 ft | 117 kts | 79° |
| 2026-05-06 13:51 | 51.64738 | 8.52016 | 3949 ft | 114 kts | 79° |
| 2026-05-06 13:52 | 51.64913 | 8.53260 | 3923 ft | 116 kts | 80° |
| 2026-05-06 13:52 | 51.65090 | 8.54587 | 3726 ft | 127 kts | 81° |
| 2026-05-06 13:52 | 51.65271 | 8.55977 | 3535 ft | 120 kts | 79° |
| 2026-05-06 13:52 | 51.65436 | 8.57166 | 3337 ft | 107 kts | 79° |
| 2026-05-06 13:53 | 51.65599 | 8.58299 | 3137 ft | 101 kts | 77° |
| 2026-05-06 13:53 | 51.65753 | 8.59385 | 2933 ft | 98 kts | 78° |
| 2026-05-06 13:53 | 51.65899 | 8.60429 | 2738 ft | 94 kts | 77° |
| 2026-05-06 13:53 | 51.66041 | 8.61450 | 2540 ft | 92 kts | 78° |
| 2026-05-06 13:54 | 51.66177 | 8.62449 | 2344 ft | 90 kts | 78° |
| 2026-05-06 13:54 | 51.66313 | 8.63413 | 2143 ft | 86 kts | 77° |
| 2026-05-06 13:54 | 51.66402 | 8.64022 | 2015 ft | 84 kts | 76° |
| 2026-05-06 13:54 | 51.66479 | 8.64559 | 1949 ft | 77 kts | 78° |
| 2026-05-06 13:55 | 51.66596 | 8.65353 | 1945 ft | 75 kts | 77° |
| 2026-05-06 13:55 | 51.66708 | 8.66175 | 1967 ft | 83 kts | 77° |
| 2026-05-06 13:55 | 51.66829 | 8.67172 | 1970 ft | 97 kts | 79° |
| 2026-05-06 13:55 | 51.66964 | 8.68306 | 1970 ft | 107 kts | 80° |
| 2026-05-06 13:56 | 51.67027 | 8.69507 | 1974 ft | 108 kts | 110° |
| 2026-05-06 13:56 | 51.66493 | 8.70275 | 1962 ft | 103 kts | 150° |
| 2026-05-06 13:56 | 51.65887 | 8.70878 | 1869 ft | 104 kts | 165° |
| 2026-05-06 13:56 | 51.65239 | 8.70624 | 1775 ft | 96 kts | 223° |
| 2026-05-06 13:57 | 51.64788 | 8.69800 | 1508 ft | 103 kts | 247° |
| 2026-05-06 13:57 | 51.64420 | 8.68831 | 1188 ft | 101 kts | 243° |
| 2026-05-06 13:57 | 51.64049 | 8.67971 | 1085 ft | 81 kts | 235° |
| 2026-05-06 13:57 | 51.63717 | 8.67294 | 1061 ft | 75 kts | 238° |
| 2026-05-06 13:58 | 51.63399 | 8.66628 | 1094 ft | 74 kts | 244° |
| 2026-05-06 13:58 | 51.63131 | 8.65897 | 1077 ft | 79 kts | 248° |
| 2026-05-06 13:58 | 51.62826 | 8.65128 | 1058 ft | 80 kts | 243° |
| 2026-05-06 13:58 | 51.62531 | 8.64366 | 1002 ft | 87 kts | 244° |
| 2026-05-06 13:59 | 51.62187 | 8.63525 | 826 ft | 91 kts | 243° |
| 2026-05-06 13:59 | 51.61837 | 8.62686 | 705 ft | 88 kts | 245° |
| 2026-05-06 13:59 | 51.61558 | 8.61980 | 698 ft | 58 kts | 248° |
| 2026-05-06 13:59 | 51.61396 | 8.61592 | 705 ft | 34 kts | 236° |
| 2026-05-06 14:00 | 51.61281 | 8.61313 | 708 ft | 28 kts | 236° |
| 2026-05-06 14:00 | 51.61147 | 8.61083 | 710 ft | 26 kts | 201° |
| 2026-05-06 14:00 | 51.61055 | 8.61018 | 714 ft | 0 kts | 191° |
| 2026-05-06 14:01 | 51.61031 | 8.61020 | 716 ft | 10 kts | 166° |
| 2026-05-06 14:02 | 51.60995 | 8.61104 | 713 ft | 11 kts | 109° |
| 2026-05-06 14:02 | 51.60969 | 8.61254 | 722 ft | 18 kts | 101° |
| 2026-05-06 14:02 | 51.60994 | 8.61458 | 726 ft | 18 kts | 62° |
| 2026-05-06 14:02 | 51.61027 | 8.61611 | 726 ft | 12 kts | 128° |
| 2026-05-06 14:03 | 51.60988 | 8.61584 | 726 ft | 4 kts | 237° |
| 2026-05-06 14:03 | 51.60977 | 8.61557 | 726 ft | 0 kts | 237° |